Time;durP1;ratioP1;P1;durP2;ratioP2;P2;SDS_P1;SDS_P2;PMS_P1;PMS_P2;Temp;Humidity;BMP_temperature;BMP_pressure;BME280_temperature;BME280_humidity;BME280_pressure;Samples;Min_cycle;Max_cycle;Signal;HPM_P1;HPM_P2
2022/07/11 00:02:04;;;;;;;3.22;3.03;;;;;;;20.15;100.00;99887.34;5051900;28;20203;-76
2022/07/11 00:04:31;;;;;;;3.90;3.60;;;;;;;19.81;100.00;99804.91;5052341;28;20196;-75
2022/07/11 00:06:58;;;;;;;3.58;3.28;;;;;;;20.09;100.00;99855.88;5052869;28;20198;-76
2022/07/11 00:09:25;;;;;;;6.88;3.67;;;;;;;19.90;100.00;99859.94;5052726;28;20230;-76
2022/07/11 00:11:52;;;;;;;6.68;4.10;;;;;;;19.97;100.00;99877.28;5052468;28;20192;-76
2022/07/11 00:14:21;;;;;;;5.75;4.18;;;;;;;20.14;100.00;99879.47;5053259;28;20690;-76
2022/07/11 00:16:48;;;;;;;8.88;5.22;;;;;;;20.09;100.00;99881.34;5017975;28;20195;-76
2022/07/11 00:19:15;;;;;;;5.38;4.88;;;;;;;20.05;100.00;99885.81;5052697;28;20207;-76
2022/07/11 00:21:42;;;;;;;9.15;5.30;;;;;;;20.10;100.00;99876.06;5051969;28;20203;-76
2022/07/11 00:24:09;;;;;;;9.65;5.60;;;;;;;19.86;100.00;99878.47;5052542;28;20199;-76
2022/07/11 00:26:36;;;;;;;5.47;4.97;;;;;;;19.80;100.00;99875.06;5052936;28;20223;-76
2022/07/11 00:29:03;;;;;;;5.88;5.30;;;;;;;19.79;100.00;99883.03;5052508;28;20234;-76
2022/07/11 00:31:31;;;;;;;13.80;4.90;;;;;;;19.83;100.00;99884.69;5052545;28;20232;-76
2022/07/11 00:33:59;;;;;;;6.28;4.70;;;;;;;19.71;100.00;99863.94;5016389;28;20207;-77
2022/07/11 00:36:26;;;;;;;7.30;4.80;;;;;;;19.85;100.00;99864.44;5052334;28;20203;-76
2022/07/11 00:38:53;;;;;;;6.30;3.63;;;;;;;20.05;100.00;99880.56;5052243;28;20615;-77
2022/07/11 00:41:20;;;;;;;6.60;3.67;;;;;;;20.16;100.00;99894.31;5051725;28;20282;-76
2022/07/11 00:43:53;;;;;;;4.97;3.33;;;;;;;20.32;100.00;99875.50;5051930;28;20614;-76
2022/07/11 00:46:21;;;;;;;4.65;4.10;;;;;;;20.07;100.00;99883.16;5052473;28;20219;-76
2022/07/11 00:48:49;;;;;;;8.40;4.45;;;;;;;20.20;100.00;99895.94;5051205;28;20226;-76
2022/07/11 00:51:20;;;;;;;6.25;5.20;;;;;;;20.12;100.00;99892.66;5052111;28;20204;-75
2022/07/11 00:53:49;;;;;;;7.30;4.82;;;;;;;20.05;100.00;99880.56;5052137;28;20236;-76
2022/07/11 00:56:17;;;;;;;5.53;4.90;;;;;;;19.92;100.00;99876.53;5052176;28;20257;-75
2022/07/11 00:58:44;;;;;;;6.88;4.78;;;;;;;19.88;100.00;99888.03;5052273;28;20584;-75
2022/07/11 01:01:11;;;;;;;5.30;4.80;;;;;;;19.78;100.00;99894.44;5052223;28;20209;-75
2022/07/11 01:03:39;;;;;;;6.25;4.10;;;;;;;19.65;100.00;99859.72;5016327;28;20568;-76
2022/07/11 01:06:08;;;;;;;4.47;4.07;;;;;;;19.83;100.00;99895.22;5034271;28;20301;-76
2022/07/11 01:08:35;;;;;;;5.43;4.18;;;;;;;19.77;100.00;99895.34;5051524;28;20199;-76
2022/07/11 01:11:03;;;;;;;4.80;4.38;;;;;;;19.89;100.00;99881.88;5016028;28;20552;-77
2022/07/11 01:13:31;;;;;;;6.05;3.80;;;;;;;19.54;100.00;99874.03;5051030;28;20207;-76
2022/07/11 01:16:15;;;;;;;5.00;3.58;;;;;;;19.71;100.00;99898.13;5051173;28;20200;-76
2022/07/11 01:18:46;;;;;;;7.45;3.60;;;;;;;19.58;100.00;99900.22;5050868;28;20210;-76
2022/07/11 01:21:27;;;;;;;3.63;3.30;;;;;;;19.53;100.00;99891.56;5051325;28;20667;-76
2022/07/11 01:23:58;;;;;;;3.47;3.00;;;;;;;19.59;100.00;99895.81;5051269;28;20206;-76
2022/07/11 01:26:26;;;;;;;3.17;2.65;;;;;;;19.61;100.00;99899.28;5016121;28;20206;-76
2022/07/11 01:28:55;;;;;;;3.08;2.90;;;;;;;19.38;100.00;99881.38;5050291;28;20239;-76
2022/07/11 01:31:22;;;;;;;3.90;3.20;;;;;;;19.31;100.00;99857.00;5051837;28;20199;-77
2022/07/11 01:33:49;;;;;;;2.85;2.65;;;;;;;19.28;100.00;99877.25;5050551;28;20200;-76
2022/07/11 01:36:16;;;;;;;2.75;2.65;;;;;;;19.43;100.00;99890.06;5051077;28;20205;-76
2022/07/11 01:38:43;;;;;;;3.00;2.80;;;;;;;19.37;100.00;99887.53;5039233;28;20196;-76
2022/07/11 01:41:11;;;;;;;3.58;3.28;;;;;;;19.31;100.00;99869.28;5050886;28;20199;-76
2022/07/11 01:43:38;;;;;;;2.83;2.72;;;;;;;19.30;100.00;99885.94;5050891;28;20211;-76
2022/07/11 01:46:05;;;;;;;3.28;2.97;;;;;;;19.33;100.00;99857.81;5051309;28;20204;-76
2022/07/11 01:48:32;;;;;;;3.10;2.90;;;;;;;19.41;100.00;99880.44;5050983;28;20196;-76
2022/07/11 01:50:59;;;;;;;3.17;2.85;;;;;;;19.35;100.00;99889.34;5051008;28;20191;-76
2022/07/11 01:53:26;;;;;;;4.28;3.10;;;;;;;19.31;100.00;99893.81;5051156;28;20227;-76
2022/07/11 01:55:53;;;;;;;3.15;2.92;;;;;;;19.24;100.00;99876.44;5051174;28;20199;-76
2022/07/11 01:58:21;;;;;;;4.63;2.80;;;;;;;19.35;100.00;99891.09;5016325;28;20640;-76
2022/07/11 02:00:48;;;;;;;2.88;2.67;;;;;;;19.22;100.00;99903.69;5051048;28;20203;-76
2022/07/11 02:03:14;;;;;;;4.90;3.17;;;;;;;19.15;100.00;99895.06;5050890;28;20218;-76
2022/07/11 02:05:41;;;;;;;3.00;2.80;;;;;;;19.05;100.00;99897.94;5050517;28;20203;-75
2022/07/11 02:08:15;;;;;;;4.20;2.80;;;;;;;18.97;100.00;99890.22;5015428;28;20219;-76
2022/07/11 02:10:43;;;;;;;3.95;3.40;;;;;;;18.91;100.00;99894.72;5051099;28;20227;-76
2022/07/11 02:13:11;;;;;;;3.42;2.70;;;;;;;18.91;100.00;99873.72;5051032;28;20195;-76
2022/07/11 02:15:40;;;;;;;2.90;2.78;;;;;;;19.06;100.00;99899.66;5050812;28;20203;-76
2022/07/11 02:18:08;;;;;;;6.70;2.85;;;;;;;19.13;100.00;99904.75;5050680;28;20663;-76
2022/07/11 02:20:36;;;;;;;5.07;3.00;;;;;;;18.58;100.00;99833.31;5015790;28;20195;-76
2022/07/11 02:23:03;;;;;;;6.93;2.85;;;;;;;19.11;100.00;99909.19;5050735;28;20200;-77
2022/07/11 02:25:30;;;;;;;3.20;2.58;;;;;;;18.85;100.00;99916.75;5052085;28;20235;-77
2022/07/11 02:27:57;;;;;;;3.00;2.50;;;;;;;18.90;100.00;99906.16;5054870;28;20199;-77
2022/07/11 02:30:24;;;;;;;3.92;2.60;;;;;;;18.75;100.00;99886.34;5055129;28;20245;-75
2022/07/11 02:32:52;;;;;;;4.18;3.63;;;;;;;19.00;100.00;99908.56;5054329;28;20199;-76
2022/07/11 02:35:20;;;;;;;3.03;2.85;;;;;;;18.88;100.00;99916.69;5055279;28;20203;-77
2022/07/11 02:37:48;;;;;;;2.92;2.72;;;;;;;18.90;100.00;99911.41;5054880;28;20260;-76
2022/07/11 02:40:15;;;;;;;2.67;2.47;;;;;;;18.96;100.00;99925.28;5054658;28;20330;-77
2022/07/11 02:42:42;;;;;;;2.60;2.50;;;;;;;18.95;100.00;99926.16;5054810;28;20195;-77
2022/07/11 02:45:10;;;;;;;2.72;2.53;;;;;;;18.92;100.00;99923.63;5054852;28;20210;-75
2022/07/11 02:47:39;;;;;;;2.53;2.42;;;;;;;18.75;100.00;99916.09;5053956;28;20577;-75
2022/07/11 02:50:09;;;;;;;3.30;2.80;;;;;;;18.86;100.00;99934.25;5054596;28;20219;-75
2022/07/11 02:52:36;;;;;;;2.58;2.38;;;;;;;18.69;100.00;99931.13;5054500;28;20207;-76
2022/07/11 02:55:03;;;;;;;2.95;2.70;;;;;;;18.73;100.00;99938.03;5054772;28;20231;-75
2022/07/11 02:57:30;;;;;;;10.38;2.75;;;;;;;18.49;100.00;99938.47;5054604;28;20206;-75
2022/07/11 02:59:56;;;;;;;2.50;2.40;;;;;;;18.28;100.00;99921.38;5054617;28;20207;-77
2022/07/11 03:02:23;;;;;;;3.63;3.28;;;;;;;18.50;100.00;99942.84;5018956;28;20207;-76
2022/07/11 03:04:50;;;;;;;2.92;2.72;;;;;;;18.47;100.00;99933.28;5054055;28;20208;-76
2022/07/11 03:07:18;;;;;;;8.48;2.85;;;;;;;18.54;100.00;99944.56;5054402;28;20816;-75
2022/07/11 03:09:45;;;;;;;7.18;3.15;;;;;;;18.58;100.00;99948.84;5034296;28;20232;-75
2022/07/11 03:12:12;;;;;;;3.00;2.70;;;;;;;18.69;100.00;99944.25;5038092;28;20855;-77
2022/07/11 03:14:39;;;;;;;3.00;2.78;;;;;;;18.70;100.00;99949.47;5053696;28;20200;-76
2022/07/11 03:17:06;;;;;;;4.50;3.30;;;;;;;18.83;100.00;99954.47;5053683;28;20192;-77
2022/07/11 03:19:32;;;;;;;2.75;2.55;;;;;;;18.79;100.00;99932.66;5054056;28;20692;-77
2022/07/11 03:21:59;;;;;;;3.42;2.90;;;;;;;19.03;100.00;99961.03;5053991;28;20211;-76
2022/07/11 03:24:27;;;;;;;3.13;2.90;;;;;;;19.10;100.00;99965.28;5054290;28;20202;-77
2022/07/11 03:26:54;;;;;;;3.05;2.75;;;;;;;18.90;100.00;99967.47;5018081;28;20203;-77
2022/07/11 03:29:22;;;;;;;3.30;3.10;;;;;;;18.52;100.00;99922.69;5053482;28;20207;-77
2022/07/11 03:31:49;;;;;;;4.50;3.40;;;;;;;19.06;100.00;99984.63;5052821;28;20196;-76
2022/07/11 03:34:16;;;;;;;3.33;2.72;;;;;;;19.35;100.00;99976.09;5053272;28;20218;-77
2022/07/11 03:36:45;;;;;;;6.55;2.63;;;;;;;19.07;100.00;99962.72;5053000;28;20207;-77
2022/07/11 03:39:13;;;;;;;2.50;2.40;;;;;;;19.13;100.00;99959.94;5019292;28;20203;-76
2022/07/11 03:41:41;;;;;;;2.80;2.65;;;;;;;18.87;100.00;99893.09;5053354;28;20199;-77
2022/07/11 03:44:08;;;;;;;3.00;2.40;;;;;;;19.21;100.00;99947.50;5053587;28;20609;-77
2022/07/11 03:46:35;;;;;;;2.45;2.25;;;;;;;19.21;100.00;99988.69;5053391;28;20196;-76
2022/07/11 03:49:02;;;;;;;3.85;2.15;;;;;;;19.39;100.00;99985.66;5017314;28;20203;-76
2022/07/11 03:51:29;;;;;;;2.58;2.30;;;;;;;19.19;100.00;99970.31;5052316;28;20220;-77
2022/07/11 03:53:56;;;;;;;3.70;2.17;;;;;;;19.01;100.00;99949.72;5052240;28;20231;-76
2022/07/11 03:56:23;;;;;;;4.55;2.78;;;;;;;19.14;100.00;99964.31;5053566;28;20204;-76
2022/07/11 03:58:51;;;;;;;2.33;2.13;;;;;;;19.76;100.00;99994.44;5053366;28;20298;-75
2022/07/11 04:01:18;;;;;;;2.50;2.20;;;;;;;20.25;100.00;99986.22;5052279;28;20202;-76
2022/07/11 04:03:45;;;;;;;3.45;2.30;;;;;;;20.06;100.00;99971.78;5052611;28;20211;-76
2022/07/11 04:06:12;;;;;;;6.13;2.30;;;;;;;19.95;100.00;99992.25;5052869;28;20615;-77
2022/07/11 04:08:39;;;;;;;2.47;2.08;;;;;;;19.54;100.00;99992.38;5052853;28;20192;-77
2022/07/11 04:11:06;;;;;;;3.33;2.40;;;;;;;19.54;100.00;100002.91;5052871;28;20224;-80
2022/07/11 04:13:33;;;;;;;2.42;2.22;;;;;;;19.82;100.00;100006.63;5052658;28;20561;-80
2022/07/11 04:16:01;;;;;;;9.25;2.20;;;;;;;20.03;100.00;99998.19;5053154;28;20205;-79
2022/07/11 04:18:30;;;;;;;4.15;2.33;;;;;;;20.17;100.00;100000.47;5053274;28;20195;-78
2022/07/11 04:20:56;;;;;;;2.15;1.98;;;;;;;19.78;100.00;99991.81;5053101;28;20206;-78
2022/07/11 04:23:23;;;;;;;2.10;1.98;;;;;;;20.28;100.00;100006.38;5052140;28;20191;-78
2022/07/11 04:25:50;;;;;;;7.05;1.83;;;;;;;21.04;99.78;100017.47;5052909;28;20200;-78
2022/07/11 04:28:17;;;;;;;2.10;1.90;;;;;;;21.37;96.83;100015.66;5039157;28;20196;-78
2022/07/11 04:30:44;;;;;;;2.00;1.90;;;;;;;20.71;99.83;100020.16;5043116;28;20215;-77
2022/07/11 04:33:13;;;;;;;1.90;1.80;;;;;;;20.67;100.00;100020.25;5052100;28;20223;-80
2022/07/11 04:35:40;;;;;;;3.25;1.90;;;;;;;20.46;100.00;100007.66;5052632;28;20195;-80
2022/07/11 04:38:06;;;;;;;2.45;2.00;;;;;;;20.14;100.00;100008.47;5017290;28;20192;-80
2022/07/11 04:40:33;;;;;;;2.50;2.30;;;;;;;19.75;100.00;100010.28;5052332;28;20204;-72
2022/07/11 04:43:00;;;;;;;2.72;2.30;;;;;;;19.76;100.00;100027.81;5052461;28;20220;-79
2022/07/11 04:45:27;;;;;;;2.08;1.98;;;;;;;19.90;100.00;100025.72;5052855;28;20199;-80
2022/07/11 04:47:54;;;;;;;2.60;2.17;;;;;;;19.37;100.00;99999.75;5051440;28;20210;-79
2022/07/11 04:50:23;;;;;;;2.60;2.40;;;;;;;19.47;100.00;100035.50;5052761;28;20246;-80
2022/07/11 04:52:49;;;;;;;2.10;2.00;;;;;;;19.86;100.00;100026.69;5016877;28;20196;-80
2022/07/11 04:55:17;;;;;;;1.88;1.77;;;;;;;20.90;99.91;100023.16;5052681;28;20208;-81
2022/07/11 04:57:44;;;;;;;2.08;1.83;;;;;;;20.59;96.83;99973.03;5053128;28;20261;-80
2022/07/11 05:00:12;;;;;;;2.10;2.00;;;;;;;20.88;99.21;100058.34;5052434;28;20194;-78
2022/07/11 05:02:39;;;;;;;1.70;1.60;;;;;;;21.22;97.97;100031.00;5036066;28;20215;-79
2022/07/11 05:05:06;;;;;;;2.67;1.77;;;;;;;22.32;88.04;100040.81;5025400;28;20210;-79
2022/07/11 05:07:34;;;;;;;3.90;1.80;;;;;;;22.97;81.86;100059.69;5047156;28;20211;-73
2022/07/11 05:10:01;;;;;;;7.45;3.50;;;;;;;23.85;74.61;100064.31;5045973;28;20231;-80
2022/07/11 05:12:28;;;;;;;1.77;1.67;;;;;;;24.84;69.20;100075.22;5044320;28;20218;-78
2022/07/11 05:14:55;;;;;;;2.65;1.95;;;;;;;24.65;66.91;100071.59;5051451;28;20206;-80
2022/07/11 05:17:23;;;;;;;3.53;1.98;;;;;;;25.04;65.14;100063.75;5033896;28;20203;-78
2022/07/11 05:19:50;;;;;;;2.13;1.92;;;;;;;24.35;67.62;100075.56;5043362;28;20207;-78
2022/07/11 05:22:17;;;;;;;3.40;1.90;;;;;;;23.90;68.00;100076.44;5052141;28;20215;-79
2022/07/11 05:24:45;;;;;;;3.53;1.52;;;;;;;24.09;67.18;100027.09;5051553;28;20636;-78
2022/07/11 05:27:12;;;;;;;1.85;1.55;;;;;;;24.86;66.30;100067.22;5051285;28;20192;-78
2022/07/11 05:29:39;;;;;;;1.70;1.70;;;;;;;24.46;66.67;100075.97;5050927;28;20557;-78
2022/07/11 05:32:07;;;;;;;1.70;1.60;;;;;;;24.85;64.63;100084.91;5050995;28;20292;-79
2022/07/11 05:34:34;;;;;;;3.40;2.10;;;;;;;23.99;66.47;100051.38;5051326;28;20203;-80
2022/07/11 05:37:00;;;;;;;3.03;1.80;;;;;;;24.50;66.28;100080.22;5002989;28;20199;-79
2022/07/11 05:39:27;;;;;;;1.80;1.70;;;;;;;24.85;64.93;100078.75;5051303;28;20210;-77
2022/07/11 05:41:56;;;;;;;1.95;1.73;;;;;;;24.72;65.04;100081.03;5051454;28;20196;-80
2022/07/11 05:44:23;;;;;;;1.75;1.65;;;;;;;24.50;65.65;100064.31;5051245;28;20211;-79
2022/07/11 05:46:49;;;;;;;1.85;1.60;;;;;;;25.16;64.18;100079.97;5051392;28;20204;-79
2022/07/11 05:49:16;;;;;;;1.40;1.30;;;;;;;25.09;62.95;100075.88;5037558;28;20659;-79
2022/07/11 05:51:43;;;;;;;2.67;1.80;;;;;;;25.02;64.93;100079.72;5051500;28;20293;-79
2022/07/11 05:54:10;;;;;;;2.42;1.67;;;;;;;25.47;63.39;100073.28;5051330;28;20627;-79
2022/07/11 05:56:37;;;;;;;1.85;1.75;;;;;;;24.62;64.81;100067.28;5047970;28;20211;-80
2022/07/11 05:59:05;;;;;;;1.83;1.73;;;;;;;24.41;66.13;100070.84;5050681;28;20203;-79
2022/07/11 06:01:32;;;;;;;1.77;1.67;;;;;;;24.63;64.31;100076.13;5053270;28;20690;-78
2022/07/11 06:04:00;;;;;;;1.95;1.77;;;;;;;24.01;66.57;100071.59;5020107;28;20196;-78
2022/07/11 06:06:28;;;;;;;1.75;1.65;;;;;;;24.07;66.63;100081.94;5032157;28;20207;-77
2022/07/11 06:08:53;;;;;;;2.08;1.98;;;;;;;24.33;66.64;100082.72;5015862;28;20214;-78
2022/07/11 06:11:20;;;;;;;2.00;1.90;;;;;;;23.73;68.96;100088.63;5018337;28;20219;-81
2022/07/11 06:13:48;;;;;;;1.88;1.77;;;;;;;23.52;70.11;100079.72;5050251;28;20215;-77
2022/07/11 06:16:17;;;;;;;1.90;1.80;;;;;;;23.38;71.61;100084.63;5054429;28;20199;-78
2022/07/11 06:18:45;;;;;;;3.85;2.10;;;;;;;23.36;73.14;100075.91;5050272;28;20679;-79
2022/07/11 06:21:12;;;;;;;2.35;2.17;;;;;;;23.47;72.01;100079.88;5053257;28;20203;-79
2022/07/11 06:23:39;;;;;;;1.83;1.73;;;;;;;23.85;71.17;100074.91;5012551;28;20223;-78
2022/07/11 06:26:06;;;;;;;3.03;1.70;;;;;;;23.78;70.48;100069.00;5053094;28;20201;-79
2022/07/11 06:28:33;;;;;;;3.97;1.85;;;;;;;23.43;71.82;100093.31;5015055;28;20210;-80
2022/07/11 06:30:59;;;;;;;6.22;2.10;;;;;;;23.57;71.71;100083.06;5054105;28;20223;-79
2022/07/11 06:33:28;;;;;;;1.90;1.70;;;;;;;23.28;74.24;100073.53;5051584;28;20203;-79
2022/07/11 06:35:54;;;;;;;1.55;1.50;;;;;;;23.44;74.40;100084.44;5050308;28;20203;-78
2022/07/11 06:38:21;;;;;;;4.50;2.10;;;;;;;23.18;74.92;100085.38;5052499;28;20200;-79
2022/07/11 06:40:48;;;;;;;1.90;1.80;;;;;;;23.05;77.10;100098.16;5053091;28;20292;-79
2022/07/11 06:43:15;;;;;;;2.97;2.08;;;;;;;22.97;77.14;100096.72;5051531;28;20200;-78
2022/07/11 06:45:42;;;;;;;3.85;2.20;;;;;;;22.76;78.52;100089.53;5050431;28;20199;-80
2022/07/11 06:48:09;;;;;;;2.60;1.92;;;;;;;22.92;79.07;100096.88;5050113;28;20199;-79
2022/07/11 06:50:37;;;;;;;1.85;1.75;;;;;;;23.23;78.41;100086.06;5050261;28;20231;-77
2022/07/11 06:53:04;;;;;;;1.90;1.80;;;;;;;23.20;78.33;100092.31;5050725;28;20239;-79
2022/07/11 06:55:31;;;;;;;3.75;1.98;;;;;;;23.01;76.25;100091.25;5050499;28;20199;-79
2022/07/11 06:57:58;;;;;;;3.33;2.05;;;;;;;22.94;77.56;100095.03;5014660;28;20211;-78
2022/07/11 07:00:27;;;;;;;2.13;2.00;;;;;;;23.07;77.92;100111.34;5050149;28;20218;-78
2022/07/11 07:02:56;;;;;;;1.77;1.67;;;;;;;22.89;78.87;100097.00;5050708;28;20195;-77
2022/07/11 07:05:23;;;;;;;5.28;1.90;;;;;;;23.03;79.16;100094.72;5050188;28;20196;-77
2022/07/11 07:07:51;;;;;;;3.58;1.73;;;;;;;23.18;75.94;100110.06;5050419;28;20200;-78
2022/07/11 07:10:18;;;;;;;1.58;1.58;;;;;;;23.07;74.99;100090.19;5040154;28;20211;-78
2022/07/11 07:12:45;;;;;;;5.05;2.15;;;;;;;23.05;79.39;100095.53;5049981;28;20207;-78
2022/07/11 07:15:13;;;;;;;4.50;1.90;;;;;;;23.14;76.66;100029.06;5054839;28;20206;-78
2022/07/11 07:17:40;;;;;;;8.60;2.42;;;;;;;23.68;74.99;100088.81;5054080;28;20199;-78
2022/07/11 07:20:10;;;;;;;6.68;1.88;;;;;;;23.72;70.99;100101.03;5054476;28;20199;-78
2022/07/11 07:22:37;;;;;;;6.70;1.90;;;;;;;23.73;69.86;100096.56;5054461;28;20234;-78
2022/07/11 07:25:09;;;;;;;3.88;1.77;;;;;;;23.77;68.74;100106.13;5035363;28;20208;-78
2022/07/11 07:27:35;;;;;;;3.25;2.10;;;;;;;23.55;67.92;100104.28;5054100;28;20212;-73
2022/07/11 07:30:02;;;;;;;1.80;1.70;;;;;;;23.51;69.12;100096.50;5052073;28;20199;-79
2022/07/11 07:32:29;;;;;;;2.58;1.60;;;;;;;23.40;65.89;100098.69;5027140;28;20219;-76
2022/07/11 07:34:56;;;;;;;4.20;1.60;;;;;;;23.56;66.12;100110.44;5052955;28;20203;-76
2022/07/11 07:37:23;;;;;;;4.28;2.25;;;;;;;23.42;66.56;100108.31;5053428;28;20513;-76
2022/07/11 07:39:50;;;;;;;3.28;1.65;;;;;;;23.45;65.59;100096.75;5053647;28;20214;-77
2022/07/11 07:42:18;;;;;;;10.63;1.60;;;;;;;23.83;65.66;100100.59;5053210;28;20215;-79
2022/07/11 07:44:45;;;;;;;3.78;1.48;;;;;;;23.69;64.68;100106.41;5053633;28;20222;-78
2022/07/11 07:47:11;;;;;;;4.38;1.60;;;;;;;23.85;62.65;100075.78;5053630;28;20196;-78
2022/07/11 07:49:38;;;;;;;7.05;1.60;;;;;;;23.84;61.46;100089.94;5053603;28;20666;-79
2022/07/11 07:52:05;;;;;;;2.22;1.80;;;;;;;23.73;60.72;100108.00;5055906;28;20231;-78
2022/07/11 07:54:32;;;;;;;1.85;1.30;;;;;;;23.77;58.88;100101.69;5018613;28;20235;-78
2022/07/11 07:56:59;;;;;;;2.65;1.50;;;;;;;23.66;58.90;100037.69;5064900;28;20194;-78
2022/07/11 07:59:27;;;;;;;5.15;1.80;;;;;;;24.01;56.79;100103.38;5073738;28;20203;-78
2022/07/11 08:01:53;;;;;;;5.22;1.40;;;;;;;23.95;56.48;100103.63;5073804;28;20210;-78
2022/07/11 08:04:20;;;;;;;2.85;1.90;;;;;;;24.19;55.08;100107.09;5073553;28;20203;-77
2022/07/11 08:06:47;;;;;;;4.43;1.90;;;;;;;24.09;53.24;100098.63;5074168;28;20207;-77
2022/07/11 08:09:13;;;;;;;3.13;1.50;;;;;;;24.39;52.50;100116.91;5073703;28;20209;-78
2022/07/11 08:11:40;;;;;;;3.08;1.35;;;;;;;24.45;52.52;100108.69;5067115;28;20223;-77
2022/07/11 08:14:08;;;;;;;4.22;1.58;;;;;;;24.55;52.59;100120.66;5053457;28;20265;-78
2022/07/11 08:16:37;;;;;;;1.30;1.20;;;;;;;24.35;50.39;100112.66;5053454;28;20200;-79
2022/07/11 08:19:05;;;;;;;2.15;1.35;;;;;;;24.50;50.78;100122.63;5053285;28;20582;-75
2022/07/11 08:21:33;;;;;;;4.28;1.20;;;;;;;24.39;49.14;100111.63;5053047;28;20208;-75
2022/07/11 08:24:00;;;;;;;9.98;1.65;;;;;;;24.77;49.55;100129.44;5051750;28;20416;-76
2022/07/11 08:26:28;;;;;;;1.20;1.10;;;;;;;24.65;49.31;100114.88;5052392;28;20210;-76
2022/07/11 08:28:54;;;;;;;2.00;1.42;;;;;;;24.73;48.57;100113.69;5017102;28;20592;-76
2022/07/11 08:31:21;;;;;;;2.05;1.40;;;;;;;24.73;48.87;100122.53;5052144;28;20228;-76
2022/07/11 08:33:50;;;;;;;4.57;1.30;;;;;;;24.51;48.46;100119.03;5052282;28;20196;-76
2022/07/11 08:36:17;;;;;;;5.00;1.30;;;;;;;24.63;48.73;100134.44;5052064;28;20195;-75
2022/07/11 08:38:46;;;;;;;1.50;1.20;;;;;;;24.52;48.34;100120.78;5016781;28;20191;-76
2022/07/11 08:41:16;;;;;;;1.40;0.90;;;;;;;24.76;48.01;100122.38;5052449;28;20242;-76
2022/07/11 08:43:43;;;;;;;1.35;1.20;;;;;;;24.69;47.82;100108.53;5051983;28;20215;-75
2022/07/11 08:46:11;;;;;;;5.35;1.30;;;;;;;24.78;46.47;100104.63;5052256;28;20199;-76
2022/07/11 08:48:40;;;;;;;4.97;1.70;;;;;;;24.87;46.64;100109.56;5051726;28;20253;-76
2022/07/11 08:51:09;;;;;;;4.55;1.40;;;;;;;24.73;46.59;100111.91;5051672;28;20300;-76
2022/07/11 08:53:42;;;;;;;2.33;1.27;;;;;;;25.01;46.45;100119.59;5051652;28;20234;-75
2022/07/11 08:56:15;;;;;;;2.40;1.35;;;;;;;25.20;45.95;100114.34;5051930;28;20239;-75
2022/07/11 08:58:45;;;;;;;5.72;1.30;;;;;;;25.34;45.45;100127.84;5051606;28;20227;-75
2022/07/11 09:01:16;;;;;;;3.42;1.65;;;;;;;25.28;45.07;100133.44;5051631;28;20741;-75
2022/07/11 09:03:43;;;;;;;4.45;1.90;;;;;;;25.11;44.77;100128.91;5051821;28;20202;-75
2022/07/11 09:06:12;;;;;;;5.63;1.45;;;;;;;25.27;44.83;100129.06;5051545;28;20203;-75
2022/07/11 09:08:39;;;;;;;1.30;1.20;;;;;;;25.21;45.88;100124.03;5016439;28;20196;-76
2022/07/11 09:11:06;;;;;;;6.22;1.40;;;;;;;24.85;44.62;100097.31;5051226;28;20206;-77
2022/07/11 09:13:34;;;;;;;1.45;1.33;;;;;;;25.16;44.86;100121.56;5051651;28;20286;-76
2022/07/11 09:16:05;;;;;;;5.13;2.20;;;;;;;25.06;44.28;100126.44;5051729;28;20644;-77
2022/07/11 09:18:34;;;;;;;2.80;1.55;;;;;;;25.41;45.53;100129.31;5051407;28;20206;-73
2022/07/11 09:26:46;;;;;;;1.58;1.48;;;;;;;25.54;41.98;100125.22;4986607;28;20317;-75
2022/07/11 09:29:14;;;;;;;3.72;1.50;;;;;;;25.60;42.68;100114.31;4951061;28;20205;-76
2022/07/11 09:31:42;;;;;;;4.50;1.60;;;;;;;25.85;42.13;100127.31;4975486;28;20233;-75
2022/07/11 09:34:10;;;;;;;2.55;1.45;;;;;;;25.95;41.58;100110.00;4988079;28;20205;-74
2022/07/11 09:36:42;;;;;;;2.15;1.40;;;;;;;25.73;42.28;100117.25;4977221;28;20202;-74
2022/07/11 09:39:13;;;;;;;1.67;1.50;;;;;;;25.58;42.30;100142.72;4989242;28;20757;-75
2022/07/11 09:41:40;;;;;;;3.97;1.75;;;;;;;25.53;41.51;100123.47;4989740;28;20221;-75
2022/07/11 09:44:13;;;;;;;12.02;2.47;;;;;;;25.31;41.82;100125.34;4976889;28;20757;-75
2022/07/11 09:46:41;;;;;;;4.60;2.60;;;;;;;25.01;41.58;100136.38;4975808;28;20209;-76
2022/07/11 09:49:08;;;;;;;3.78;1.38;;;;;;;25.10;41.42;100117.41;4989308;28;20208;-76
2022/07/11 09:51:37;;;;;;;3.47;1.52;;;;;;;25.37;42.15;100128.59;4990155;28;20768;-76
2022/07/11 09:54:05;;;;;;;7.82;2.05;;;;;;;25.40;41.81;100111.69;4963639;28;20225;-75
2022/07/11 09:56:40;;;;;;;5.07;2.10;;;;;;;25.55;41.88;100134.88;4991073;28;21533;-75
2022/07/11 09:59:09;;;;;;;2.20;1.50;;;;;;;25.60;41.59;100133.75;4988920;28;20768;-74
2022/07/11 10:01:36;;;;;;;2.63;1.25;;;;;;;25.55;41.73;100137.53;4982537;28;20241;-75
2022/07/11 10:04:06;;;;;;;2.35;1.20;;;;;;;25.46;40.79;100132.63;5050644;28;20203;-75
2022/07/11 10:06:33;;;;;;;3.75;1.30;;;;;;;25.57;41.98;100141.88;5050511;28;20196;-77
2022/07/11 10:09:01;;;;;;;3.60;1.67;;;;;;;25.28;40.52;100144.94;5050428;28;20224;-77
2022/07/11 10:11:28;;;;;;;4.85;2.35;;;;;;;25.21;39.78;100132.88;5050371;28;20277;-76
2022/07/11 10:13:59;;;;;;;7.40;2.63;;;;;;;25.63;39.88;100148.69;5050481;28;20257;-75
2022/07/11 10:16:36;;;;;;;7.65;3.25;;;;;;;25.67;39.47;100133.47;5050575;28;20204;-75
2022/07/11 10:19:31;;;;;;;2.67;2.10;;;;;;;25.57;39.49;100117.97;5044459;28;20254;-75
2022/07/11 10:22:10;;;;;;;3.45;2.30;;;;;;;26.00;38.40;100145.19;5000129;28;20208;-73
2022/07/11 10:24:47;;;;;;;5.43;2.08;;;;;;;25.94;36.66;100133.03;5050639;28;20203;-76
2022/07/11 10:27:25;;;;;;;2.22;2.10;;;;;;;25.97;36.76;100127.56;5050339;28;20203;-75
2022/07/11 10:29:54;;;;;;;2.75;2.42;;;;;;;25.79;38.38;100124.94;5050401;28;20226;-79
2022/07/11 10:32:21;;;;;;;2.95;2.15;;;;;;;25.71;36.04;100143.91;5050539;28;20227;-76
2022/07/11 10:35:07;;;;;;;5.13;2.42;;;;;;;25.83;35.00;100148.63;5050341;28;20200;-75
2022/07/11 10:37:48;;;;;;;3.38;2.70;;;;;;;26.10;34.95;100146.47;5055543;28;20285;-76
2022/07/11 10:40:15;;;;;;;4.05;3.05;;;;;;;25.85;35.25;100138.81;5070154;28;20202;-76
2022/07/11 10:42:43;;;;;;;4.10;3.50;;;;;;;26.00;35.30;100138.09;5071856;28;20213;-75
2022/07/11 10:45:12;;;;;;;4.00;3.45;;;;;;;25.97;36.83;100138.22;5035623;28;20203;-76
2022/07/11 10:47:43;;;;;;;7.55;2.95;;;;;;;25.91;36.34;100159.75;5073566;28;20205;-75
2022/07/11 10:50:26;;;;;;;7.60;2.88;;;;;;;26.06;36.75;100150.22;5074801;28;20195;-75
2022/07/11 10:52:57;;;;;;;3.85;2.45;;;;;;;25.96;37.24;100151.59;5074437;28;20670;-74
2022/07/11 10:55:35;;;;;;;5.47;2.35;;;;;;;26.13;36.19;100141.88;5074593;28;20195;-75
2022/07/11 10:58:09;;;;;;;3.22;2.42;;;;;;;25.93;36.72;100154.41;5074529;28;20587;-76
2022/07/11 11:00:37;;;;;;;8.82;2.03;;;;;;;25.97;36.80;100140.88;5074436;28;20230;-76
2022/07/11 11:03:06;;;;;;;5.78;2.17;;;;;;;25.86;36.81;100161.78;5074433;28;20199;-77
2022/07/11 11:05:47;;;;;;;5.38;2.00;;;;;;;26.01;37.25;100153.06;5074342;28;20199;-75
2022/07/11 11:08:44;;;;;;;5.03;2.38;;;;;;;26.07;37.14;100166.09;5069879;28;20207;-77
2022/07/11 11:11:47;;;;;;;1.83;1.73;;;;;;;26.20;37.44;100153.09;5064911;28;20282;-76
2022/07/11 11:14:32;;;;;;;7.97;2.38;;;;;;;26.14;36.89;100156.91;5059461;28;20191;-75
2022/07/11 11:17:37;;;;;;;3.47;2.00;;;;;;;26.25;37.43;100152.91;5061509;28;20694;-75
2022/07/11 11:20:06;;;;;;;3.83;2.40;;;;;;;26.33;37.37;100154.22;4989946;28;20205;-74
2022/07/11 11:22:33;;;;;;;3.58;2.10;;;;;;;26.22;37.40;100145.06;4992611;28;20216;-74
2022/07/11 11:25:01;;;;;;;2.00;1.80;;;;;;;26.18;37.22;100141.69;4992404;28;20337;-74
2022/07/11 11:27:28;;;;;;;1.70;1.60;;;;;;;26.05;36.32;100152.00;4992563;28;20236;-75
2022/07/11 11:29:56;;;;;;;4.53;1.40;;;;;;;26.09;37.10;100150.94;4992267;28;20197;-75
2022/07/11 11:32:31;;;;;;;3.40;1.92;;;;;;;26.20;36.89;100152.25;4992334;28;20240;-75
2022/07/11 11:34:58;;;;;;;4.32;1.92;;;;;;;26.04;36.92;100150.28;4992162;28;20218;-74
2022/07/11 11:37:27;;;;;;;5.05;2.08;;;;;;;26.22;36.90;100151.22;4992350;28;20617;-74